Fort Eustis, Virginia
Current Conditions -  °F | °C
As of 9:58 PM on Monday 20 Oct 2014 (Local Time) from KFAF Reporting Station
Scattered Clouds Scattered Clouds  
Wind Chill: 59°   Ceiling: Unl
Heat Index: 59°   Visibility: 10mi
Dew Point: 55°   Wind: 3mph
Humidity: 87%   Direction: 160°SSE
Pressure: 29.98"   Gusts: NA
Location:  37.13°N, 76.61°W
Report Text: KFAF 210158Z AUTO 16003KT 10SM SCT200 15/13 A2998 RMK AO2 SLP155 T01500128 $
Loading
Personal Weather Stations






























Interactive Weather Map New forecast layout! Learn more

10-Day Weather Forecast

Advertisements
Track Severe Weather on mobile